Flight Track Log - Related Links

Times and Time Zones

All times are in EDT time to prevent confusion due to time zone crossing. See the UAL780 flight status page for this flight to view local times or setup timezone preferences in your user account.

Time Position Orientation Groundspeed Altitude Reporting Facility
EDT Latitude Longitude Course Direction KTS MPH feet Rate Location/Type
Mon 06:42:38 PM 28.4333 -81.3167 270° West 196 226 500  Level Orlando TRACON
Mon 06:42:56 PM 28.4500 -81.3167 360° North 160 184 1,500 2,538 Climbing Orlando TRACON
Mon 06:43:56 PM 28.5000 -81.3167 360° North 177 204 3,800 2,250 Climbing Orlando TRACON
Mon 06:44:56 PM 28.5667 -81.3333 348° North 259 298 6,000 2,406 Climbing Orlando TRACON
Mon 06:45:00 PM 28.4167 -81.6244 270° West  Level FlightAware Approximate
Mon 06:46:00 PM 28.4167 -81.7325 270° West  Level FlightAware Approximate
Mon 06:47:00 PM 28.4167 -81.8406 270° West  Level FlightAware Approximate
Mon 06:47:03 PM 28.5431 -81.4983 261° West 258 297 11,300  Level Jacksonville Center
Mon 06:48:03 PM 28.5211 -81.6050 257° West 305 351 13,400 2,300 Climbing Jacksonville Center
Mon 06:49:03 PM 28.5203 -81.7183 270° West 345 397 15,900 2,200 Climbing Jacksonville Center
Mon 06:50:03 PM 28.5211 -81.8411 270° West 373 429 17,800 2,727 Climbing Jacksonville Center
Mon 06:51:04 PM 28.5222 -81.9617 271° West 382 440 21,400 2,700 Climbing Jacksonville Center
Mon 06:52:03 PM 28.5378 -82.0914 278° West 382 440 23,200 1,311 Climbing Jacksonville Center
Mon 06:53:03 PM 28.5883 -82.1997 298° West 382 440 24,000 400 Climbing Jacksonville Center
Mon 06:54:03 PM 28.6597 -82.2964 310° West 385 443 24,000  Level Jacksonville Center
Mon 06:55:03 PM 28.7311 -82.3906 311° West 397 457 24,000  Level Jacksonville Center
Mon 06:56:04 PM 28.8025 -82.4897 309° West 397 457 24,000  Level Jacksonville Center
Mon 06:57:03 PM 28.8736 -82.5867 310° West 397 457 24,000  Level Jacksonville Center
Mon 06:58:03 PM 28.9386 -82.6744 310° West 403 464 24,000  Level Jacksonville Center
Mon 06:59:03 PM 29.0117 -82.7739 310° West 403 464 24,000  Level Jacksonville Center
Mon 07:00:03 PM 29.0850 -82.8736 310° West 403 464 24,000  Level Jacksonville Center
Mon 07:01:03 PM 29.1581 -82.9758 309° West 403 464 24,000  Level Jacksonville Center
Mon 07:02:03 PM 29.2331 -83.0781 310° West 408 470 24,000  Level Jacksonville Center
Mon 07:03:03 PM 29.3058 -83.1808 309° West 408 470 24,000  Level Jacksonville Center
Mon 07:04:03 PM 29.3808 -83.2833 310° West 413 475 24,000  Level Jacksonville Center
Mon 07:05:03 PM 29.4556 -83.3839 310° West 413 475 24,000  Level Jacksonville Center
Mon 07:06:03 PM 29.5303 -83.4917 309° West 418 481 24,000  Level Jacksonville Center
Mon 07:07:04 PM 29.6069 -83.5947 311° West 418 481 24,000  Level Jacksonville Center
Mon 07:08:03 PM 29.6836 -83.7031 309° West 428 493 24,000 200 Level Jacksonville Center
Mon 07:09:04 PM 29.7581 -83.8089 309° West 428 493 24,400 950 Climbing Jacksonville Center
Mon 07:10:03 PM 29.8303 -83.9150 308° West 428 493 25,900 807 Climbing Jacksonville Center
Mon 07:11:03 PM 29.8836 -84.0281 299° West 412 474 26,000 3,348 Climbing Jacksonville Center
Mon 07:13:04 PM 29.9775 -84.2378 297° West 360 414 36,000 3,333 Climbing Jacksonville Center
Mon 07:14:03 PM 30.0164 -84.3269 297° West 319 367 36,000  Level Jacksonville Center
Mon 07:15:04 PM 30.0589 -84.4214 297° West 319 367 36,000  Level Jacksonville Center
Mon 07:16:03 PM 30.1017 -84.5181 297° West 325 374 36,000  Level Jacksonville Center
Mon 07:17:03 PM 30.1483 -84.6197 298° West 337 388 36,000  Level Jacksonville Center
Mon 07:18:03 PM 30.1928 -84.7189 297° West 348 400 36,000  Level Jacksonville Center
Mon 07:19:03 PM 30.2414 -84.8233 298° West 353 406 36,000  Level Jacksonville Center
Mon 07:20:03 PM 30.2772 -84.9347 290° West 358 412 36,000  Level Jacksonville Center
Mon 07:21:03 PM 30.2964 -85.0506 281° West 363 418 36,000  Level Jacksonville Center
Mon 07:22:03 PM 30.3153 -85.1617 281° West 363 418 36,000  Level Jacksonville Center
Mon 07:23:03 PM 30.3319 -85.2775 279° West 363 418 36,000  Level Jacksonville Center
Mon 07:24:03 PM 30.3483 -85.3958 279° West 368 423 36,000  Level Jacksonville Center
Mon 07:25:03 PM 30.3669 -85.5094 281° West 368 423 36,000  Level Jacksonville Center
Mon 07:26:03 PM 30.3853 -85.6281 280° West 373 429 36,000  Level Jacksonville Center
Mon 07:27:04 PM 30.4017 -85.7489 279° West 373 429 36,000  Level Jacksonville Center
Mon 07:28:03 PM 30.4197 -85.8650 280° West 373 429 36,000  Level Jacksonville Center
Mon 07:29:03 PM 30.4378 -85.9836 280° West 373 429 36,000  Level Jacksonville Center
Mon 07:30:03 PM 30.4519 -86.0900 279° West 373 429 36,000  Level Jacksonville Center
Mon 07:31:03 PM 30.4697 -86.2089 280° West 373 429 36,000  Level Jacksonville Center
Mon 07:32:03 PM 30.4875 -86.3275 280° West 373 429 36,000  Level Jacksonville Center
Mon 07:33:04 PM 30.5031 -86.4461 279° West 373 429 36,000  Level Jacksonville Center
Mon 07:34:03 PM 30.5225 -86.5650 281° West 373 429 36,000  Level Jacksonville Center
Mon 07:35:03 PM 30.5397 -86.6886 279° West 373 429 36,000  Level Jacksonville Center
Mon 07:36:04 PM 30.5528 -86.8097 277° West 378 435 36,000  Level Jacksonville Center
Mon 07:37:03 PM 30.5344 -86.9319 260° West 378 435 36,000  Level Jacksonville Center
Mon 07:38:03 PM 30.5117 -87.0517 258° West 378 435 36,000  Level Jacksonville Center
Mon 07:39:35 PM 30.4711 -87.2433 256° West 390 449 36,000  Level Houston Center
Mon 07:40:37 PM 30.4453 -87.3639 256° West 387 445 36,000  Level Houston Center
Mon 07:41:39 PM 30.4194 -87.4839 256° West 385 443 36,000  Level Houston Center
Mon 07:42:40 PM 30.3936 -87.6036 256° West 385 443 36,000  Level Houston Center
Mon 07:43:42 PM 30.3672 -87.7244 256° West 385 443 36,000  Level Houston Center
Mon 07:44:44 PM 30.3408 -87.8428 256° West 382 440 36,000  Level Houston Center
Mon 07:45:46 PM 30.3106 -87.9864 256° West 380 437 36,000  Level Houston Center
Mon 07:46:47 PM 30.2847 -88.1058 256° West 382 440 36,000  Level Houston Center
Mon 07:47:49 PM 30.2581 -88.2261 256° West 384 442 36,000  Level Houston Center
Mon 07:48:51 PM 30.2317 -88.3461 256° West 384 442 36,000  Level Houston Center
Mon 07:49:53 PM 30.2047 -88.4653 255° West 383 441 36,000  Level Houston Center
Mon 07:50:54 PM 30.1783 -88.5856 256° West 385 443 36,000  Level Houston Center
Mon 07:51:56 PM 30.1483 -88.7206 256° West 381 438 36,000  Level Houston Center
Mon 07:52:58 PM 30.1211 -88.8408 255° West 386 444 36,000  Level Houston Center
Mon 07:54:00 PM 30.0933 -88.9594 255° West 383 441 36,000  Level Houston Center
Mon 07:55:02 PM 30.0644 -89.0789 254° West 386 444 36,000  Level Houston Center
Mon 07:56:03 PM 30.0378 -89.1981 256° West 384 442 36,000  Level Houston Center
Mon 07:57:05 PM 30.0100 -89.3197 255° West 388 447 36,000  Level Houston Center
Mon 07:58:07 PM 29.9814 -89.4406 255° West 390 449 36,000  Level Houston Center
Mon 07:59:09 PM 29.9478 -89.5867 255° West 390 449 36,000  Level Houston Center
Mon 08:00:11 PM 29.9192 -89.7089 255° West 391 450 36,000  Level Houston Center
Mon 08:01:13 PM 29.8903 -89.8294 255° West 390 449 36,000  Level Houston Center
Mon 08:02:14 PM 29.8619 -89.9500 255° West 389 448 36,000  Level Houston Center
Mon 08:03:16 PM 29.8381 -90.0717 257° West 388 447 36,000  Level Houston Center
Mon 08:04:18 PM 29.8200 -90.1942 260° West 387 445 36,000  Level Houston Center
Mon 08:05:20 PM 29.8008 -90.3161 260° West 387 445 36,000  Level Houston Center
Mon 08:06:22 PM 29.7817 -90.4386 260° West 388 447 36,000  Level Houston Center
Mon 08:07:23 PM 29.7592 -90.5844 260° West 386 444 36,000  Level Houston Center
Mon 08:08:25 PM 29.7406 -90.7083 260° West 391 450 36,000  Level Houston Center
Mon 08:09:27 PM 29.7217 -90.8314 260° West 390 449 36,000  Level Houston Center
Mon 08:10:29 PM 29.7036 -90.9547 260° West 391 450 36,000  Level Houston Center
Mon 08:11:30 PM 29.6931 -91.0792 264° West 392 451 36,000  Level Houston Center
Mon 08:12:32 PM 29.6831 -91.2025 265° West 389 448 36,000  Level Houston Center
Mon 08:13:34 PM 29.6714 -91.3197 263° West 370 426 36,000  Level Houston Center
Mon 08:14:36 PM 29.6569 -91.4553 263° West 357 411 36,000  Level Houston Center
Mon 08:15:38 PM 29.6453 -91.5681 263° West 356 410 36,000  Level Houston Center
Mon 08:16:39 PM 29.6342 -91.6825 264° West 359 413 36,000  Level Houston Center
Mon 08:17:41 PM 29.5836 -91.7911 242° Southwest 363 418 36,000  Level Houston Center
Mon 08:18:43 PM 29.5339 -91.8933 241° Southwest 365 420 36,000  Level Houston Center
Mon 08:19:45 PM 29.4847 -91.9953 241° Southwest 365 420 36,000  Level Houston Center
Mon 08:20:47 PM 29.4353 -92.0975 241° Southwest 365 420 36,000  Level Houston Center
Mon 08:21:48 PM 29.3894 -92.2017 243° Southwest 366 421 36,000  Level Houston Center
Mon 08:22:50 PM 29.3900 -92.3150 270° West 356 410 36,000  Level Houston Center
Mon 08:23:52 PM 29.4083 -92.4531 279° West 364 419 36,000  Level Houston Center
Mon 08:24:54 PM 29.4222 -92.5672 278° West 362 417 36,000  Level Houston Center
Mon 08:25:55 PM 29.4364 -92.6819 278° West 362 417 36,000  Level Houston Center
Mon 08:26:57 PM 29.4508 -92.7942 278° West 358 412 36,000  Level Houston Center
Mon 08:27:59 PM 29.4650 -92.9078 278° West 359 413 36,000  Level Houston Center
Mon 08:29:00 PM 29.4786 -93.0219 278° West 361 415 36,000 -146 Level Houston Center
Mon 08:30:02 PM 29.4886 -93.1350 276° West 357 411 35,700 -823 Descending Houston Center
Mon 08:31:04 PM 29.4914 -93.2483 272° West 356 410 34,300 -1,902 Descending Houston Center
Mon 08:32:05 PM 29.4972 -93.3886 273° West 364 419 31,800 -1,902 Descending Houston Center
Mon 08:33:07 PM 29.5025 -93.5075 273° West 371 427 30,400 -1,742 Descending Houston Center
Mon 08:34:09 PM 29.5067 -93.6278 272° West 375 432 28,200 -2,195 Descending Houston Center
Mon 08:35:10 PM 29.5108 -93.7442 272° West 367 422 25,900 -2,244 Descending Houston Center
Mon 08:36:12 PM 29.5156 -93.8578 273° West 358 412 23,600 -2,226 Descending Houston Center
Mon 08:37:14 PM 29.5200 -93.9711 273° West 357 411 21,300 -2,341 Descending Houston Center
Mon 08:38:15 PM 29.5239 -94.0828 272° West 352 405 18,800 -2,553 Descending Houston Center
Mon 08:38:48 PM 29.5264 -94.1611 272° West 354 407 17,300 -2,654 Descending Houston Center
Mon 08:39:07 PM 29.5281 -94.1992 273° West 357 411 16,500 -2,550 Descending Houston Center
Mon 08:40:08 PM 29.5311 -94.3119 272° West 360 414 13,900 -2,211 Descending Houston Center
Mon 08:41:20 PM 29.5728 -94.4369 291° West 353 406 11,600 -1,854 Descending Houston Center
Mon 08:42:11 PM 29.6111 -94.5275 296° West 345 397 10,100 -796 Descending Houston Center
Mon 08:43:13 PM 29.6522 -94.6233 296° West 340 391 10,100  Level Houston Center
Mon 08:44:13 PM 29.6931 -94.7217 296° West 342 394 10,100  Level Houston Center
Mon 08:45:15 PM 29.7369 -94.8267 296° West 341 392 10,100  Level Houston Center
Mon 08:46:10 PM 29.7744 -94.9136 296° West 322 371 10,100 -81 Level Houston Center
Mon 08:46:29 PM 29.7867 -94.9386 299° West 321 369 10,000 -1,161 Descending Houston Center
Mon 08:47:12 PM 29.8100 -94.9983 294° West 281 323 8,900 -1,672 Descending Houston Center
Mon 08:47:30 PM 29.8214 -95.0203 301° West 291 335 8,300 -1,701 Descending Houston Center
Mon 08:48:19 PM 29.8506 -95.0944 294° West 300 345 7,000 -1,200 Descending Houston Center
Mon 08:49:20 PM 29.8881 -95.1814 296° West 294 338 6,100 -439 Descending Houston Center
Mon 08:50:22 PM 29.8981 -95.2692 278° West 270 311 6,100  Level Houston Center
Mon 08:51:23 PM 29.9000 -95.3583 271° West 274 315 6,100 -246 Level Houston Center
Mon 08:52:24 PM 29.8997 -95.4475 270° West 272 313 5,600 -639 Descending Houston Center
Mon 08:53:25 PM 29.8986 -95.5272 269° West 250 288 4,800 -711 Descending Houston Center
Mon 08:53:40 PM 29.9022 -95.5461 282° West 254 292 4,700 -1,180 Descending Houston Center
Mon 08:54:26 PM 29.9419 -95.5653 337° Northwest 225 259 3,600 -1,258 Descending Houston Center
Mon 08:54:42 PM 29.9536 -95.5544 39° Northeast 230 265 3,400 -750 Descending Houston Center

Login

Don't have an account? Register now (free) for customized features, flight alerts, and more!